METAR Data
IDs: Format: Raw Decoded Include TAF

Data at: 0800 UTC 23 Sep 2018

KMAW 230755Z AUTO 06006KT 10SM OVC009 17/16 A3003 RMK AO2
KMAW 230735Z AUTO 04007KT 10SM OVC009 17/16 A3005 RMK AO2
KMAW 230715Z AUTO 03006KT 10SM OVC009 17/16 A3006 RMK AO2
KMAW 230655Z AUTO 06006KT 10SM OVC011 17/15 A3005 RMK AO2
KMAW 230635Z AUTO 04006KT 10SM OVC011 17/15 A3006 RMK AO2
KMAW 230615Z AUTO 04007KT 10SM OVC009 17/15 A3006 RMK AO2
KMAW 230555Z AUTO 03007KT 10SM OVC009 17/15 A3007 RMK AO2
KMAW 230535Z AUTO 04009KT 10SM OVC011 17/15 A3007 RMK AO2
KMAW 230515Z AUTO 03006KT 10SM BKN011 OVC020 17/15 A3008 RMK AO2
KMAW 230455Z AUTO 04007KT 10SM SCT009 OVC020 17/15 A3008 RMK AO2
KMAW 230435Z AUTO 05007KT 10SM OVC020 17/15 A3008 RMK AO2
KMAW 230415Z AUTO 03007KT 10SM SCT010 OVC018 17/16 A3009 RMK AO2
KMAW 230355Z AUTO 04008KT 10SM SCT010 OVC018 17/16 A3010 RMK AO2
KMAW 230335Z AUTO 04008KT 10SM SCT008 SCT014 OVC020 17/16 A3010 RMK AO2
KMAW 230315Z AUTO 04008KT 10SM SCT008 BKN014 OVC020 17/16 A3009 RMK AO2
KMAW 230255Z AUTO 05009G14KT 10SM SCT008 BKN014 OVC029 17/16 A3010 RMK AO2
KMAW 230235Z AUTO 04008KT 10SM BKN010 OVC014 17/16 A3010 RMK AO2
KMAW 230215Z AUTO 03008KT 10SM DZ OVC010 17/16 A3010 RMK AO2
KMAW 230155Z AUTO 03011KT 10SM -DZ OVC008 17/16 A3011 RMK AO2 P0001
KMAW 230135Z AUTO 03009G14KT 10SM OVC008 17/16 A3010 RMK AO2 P0001
KMAW 230115Z AUTO 03009KT 10SM -DZ OVC008 17/16 A3010 RMK AO2 P0001
KMAW 230055Z AUTO 03007KT 10SM DZ OVC008 17/16 A3010 RMK AO2 P0004
KMAW 230035Z AUTO 02008KT 7SM DZ OVC008 17/16 A3010 RMK AO2 P0004
KMAW 230015Z AUTO 03009G14KT 7SM +DZ BKN008 OVC013 17/16 A3009 RMK AO2 P0002
KMAW 222355Z AUTO 03008KT 10SM RA SCT007 OVC013 18/17 A3009 RMK AO2
KMAW 222335Z AUTO 03008KT 10SM OVC009 18/17 A3010 RMK AO2
KMAW 222315Z AUTO 02008KT 10SM -DZ OVC009 18/17 A3010 RMK AO2
KMAW 222255Z AUTO 04009KT 10SM DZ OVC007 18/17 A3009 RMK AO2 P0003
KMAW 222235Z AUTO 03009G14KT 7SM -RA OVC008 18/17 A3009 RMK AO2 P0002
KMAW 222215Z AUTO 04008KT 10SM -RA BKN008 OVC011 18/17 A3009 RMK AO2
KMAW 222155Z AUTO 03007KT 10SM OVC008 18/17 A3009 RMK AO2 P0001
KMAW 222135Z AUTO 04007G14KT 10SM OVC008 18/17 A3009 RMK AO2 P0001
KMAW 222115Z AUTO 04008G17KT 7SM -DZ BKN007 OVC012 18/17 A3009 RMK AO2 P0001
KMAW 222055Z AUTO 03010KT 4SM -RA OVC007 18/17 A3010 RMK AO2 P0007
KMAW 222035Z AUTO 04009G14KT 4SM +DZ OVC007 18/17 A3011 RMK AO2 P0005
KMAW 222015Z AUTO 03009KT 4SM +DZ OVC007 18/16 A3011 RMK AO2 P0002
KMAW 221955Z AUTO 03009KT 5SM +DZ OVC007 18/16 A3012 RMK AO2 P0013
KMAW 221935Z AUTO 03007KT 4SM +RA OVC007 18/16 A3012 RMK AO2 P0010
KMAW 221915Z AUTO 03008KT 5SM RA OVC007 17/16 A3012 RMK AO2 P0003
KMAW 221855Z AUTO 04006KT 10SM DZ OVC009 17/16 A3013 RMK AO2 P0004
KMAW 221835Z AUTO 03010KT 10SM RA OVC009 17/16 A3013 RMK AO2 P0004
KMAW 221815Z AUTO 03010G17KT 7SM -RA OVC009 17/16 A3014 RMK AO2 P0002
KMAW 221755Z AUTO 02010G15KT 10SM -DZ OVC009 17/16 A3014 RMK AO2 P0009
KMAW 221735Z AUTO 03012G16KT 5SM RA SCT006 OVC011 17/16 A3014 RMK AO2 P0009
KMAW 221715Z AUTO 03012KT 4SM RA BKN010 OVC013 17/16 A3015 RMK AO2 P0004
KMAW 221655Z AUTO 03008KT 7SM RA OVC010 17/16 A3017 RMK AO2 P0007
KMAW 221635Z AUTO 04008KT 7SM RA BKN008 OVC012 17/16 A3016 RMK AO2 P0006
KMAW 221615Z AUTO 05006KT 4SM RA OVC008 17/16 A3019 RMK AO2 P0002
KMAW 221555Z AUTO 04012G19KT 10SM DZ OVC008 17/15 A3016 RMK AO2 P0003
KMAW 221535Z AUTO 03014G18KT 10SM DZ BKN010 OVC014 17/15 A3016 RMK AO2 P0003
KMAW 221515Z AUTO 04014G20KT 7SM DZ OVC012 17/15 A3015 RMK AO2 P0002
KMAW 221455Z AUTO 04009G14KT 10SM DZ OVC012 17/15 A3016 RMK AO2 P0012
KMAW 221435Z AUTO 03012G17KT 5SM -RA SCT009 OVC014 17/15 A3016 RMK AO2 P0011
KMAW 221415Z AUTO 02010G15KT 4SM RA BKN008 OVC014 17/15 A3018 RMK AO2 P0008
KMAW 221355Z AUTO 32006KT 10SM RA OVC008 17/15 A3019 RMK AO2 P0003
KMAW 221335Z AUTO 03010G15KT 10SM DZ OVC008 16/15 A3016 RMK AO2 P0001
KMAW 221315Z AUTO 04010G16KT 10SM DZ OVC010 16/15 A3016 RMK AO2 P0001
KMAW 221255Z AUTO 04011G17KT 10SM DZ SCT008 SCT013 OVC033 16/15 A3016 RMK AO2 P0005
KMAW 221235Z AUTO 04013G17KT 10SM RA BKN010 BKN015 OVC035 16/15 A3015 RMK AO2 P0003
KMAW 221215Z AUTO 03010G16KT 10SM -RA BKN010 BKN018 OVC041 16/15 A3016 RMK AO2 P0001
KMAW 221155Z AUTO 04010G16KT 10SM RA BKN008 BKN017 OVC041 16/15 A3016 RMK AO2 P0011
KMAW 221135Z AUTO 04009G15KT 5SM RA SCT008 BKN015 OVC039 16/15 A3017 RMK AO2 P0007
KMAW 221115Z AUTO 03011G20KT 10SM -RA SCT008 BKN013 OVC039 17/15 A3015 RMK AO2 P0002
KMAW 221055Z AUTO 03013G20KT 10SM DZ SCT008 SCT014 OVC039 17/15 A3015 RMK AO2 P0004
KMAW 221035Z AUTO 02013KT 10SM -RA SCT008 SCT012 OVC037 17/15 A3015 RMK AO2 P0003 LTG DSNT SE
KMAW 221015Z AUTO 02012G17KT 10SM -RA SCT006 SCT011 OVC037 17/15 A3014 RMK AO2 P0001
KMAW 220955Z AUTO 01015G18KT 10SM RA SCT006 SCT011 OVC037 17/15 A3014 RMK AO2 P0002
KMAW 220935Z AUTO 01010G14KT 10SM -RA SCT013 SCT017 BKN037 17/15 A3014 RMK AO2
KMAW 220915Z AUTO 01011G15KT 10SM -DZ SCT009 SCT013 OVC037 17/15 A3014 RMK AO2 LTG DSNT S
KMAW 220855Z AUTO 36011KT 10SM -RA BKN009 BKN013 OVC060 18/16 A3014 RMK AO2 P0001
KMAW 220835Z AUTO 01010G15KT 10SM RA SCT009 SCT013 SCT060 18/15 A3014 RMK AO2
KMAW 220815Z AUTO 02012G17KT 10SM SCT040 SCT050 18/15 A3014 RMK AO2
KMAW 220755Z AUTO 02008KT 10SM SCT040 OVC050 18/15 A3014 RMK AO2
KMAW 220735Z AUTO 02009KT 10SM -RA SCT006 SCT011 BKN050 18/15 A3015 RMK AO2
KMAW 220715Z AUTO 02008KT 7SM RA SCT004 BKN011 BKN018 19/15 A3016 RMK AO2
KMAW 220655Z AUTO 04010G15KT 10SM -RA SCT041 BKN050 21/13 A3015 RMK AO2
KMAW 220635Z AUTO 02012G19KT 10SM SCT050 22/13 A3014 RMK AO2
KMAW 220615Z AUTO 02014G21KT 10SM SCT050 22/13 A3013 RMK AO2 LTG DSNT E
KMAW 220555Z AUTO 02011KT 10SM SCT050 22/13 A3014 RMK AO2
KMAW 220535Z AUTO 02014G18KT 10SM CLR 23/13 A3013 RMK AO2
KMAW 220515Z AUTO 02011G16KT 10SM SCT050 23/14 A3014 RMK AO2
KMAW 220455Z AUTO 03011KT 10SM SCT050 24/14 A3014 RMK AO2
KMAW 220435Z AUTO 03016G22KT 10SM CLR 24/15 A3014 RMK AO2
KMAW 220415Z AUTO 02015G19KT 10SM CLR 25/16 A3014 RMK AO2
KMAW 220355Z AUTO 03007KT 10SM SCT055 25/18 A3014 RMK AO2 LTG DSNT E AND SE
KMAW 220335Z AUTO 02007KT 10SM SCT055 25/19 A3013 RMK AO2
KMAW 220315Z AUTO 02008KT 10SM CLR 26/19 A3012 RMK AO2
KMAW 220255Z AUTO 02008KT 10SM CLR 26/19 A3011 RMK AO2
KMAW 220235Z AUTO 01006KT 10SM CLR 26/20 A3010 RMK AO2
KMAW 220215Z AUTO 36005KT 10SM CLR 26/20 A3010 RMK AO2
KMAW 220155Z AUTO 01006KT 10SM CLR 26/20 A3009 RMK AO2
KMAW 220135Z AUTO 01004KT 10SM CLR 26/20 A3009 RMK AO2
KMAW 220115Z AUTO 02006KT 10SM CLR 26/19 A3008 RMK AO2
KMAW 220055Z AUTO 01008KT 10SM CLR 27/19 A3007 RMK AO2
KMAW 220035Z AUTO 02008KT 10SM CLR 27/20 A3006 RMK AO2
KMAW 220015Z AUTO 01006KT 10SM CLR 27/21 A3006 RMK AO2
KMAW 212355Z AUTO 36004KT 10SM CLR 28/21 A3006 RMK AO2
KMAW 212335Z AUTO 36006KT 10SM CLR 28/21 A3005 RMK AO2
KMAW 212315Z AUTO 36006KT 10SM CLR 28/21 A3004 RMK AO2
KMAW 212255Z AUTO 36007KT 10SM CLR 28/20 A3003 RMK AO2
KMAW 212235Z AUTO 36010KT 10SM CLR 29/20 A3002 RMK AO2
KMAW 212215Z AUTO 35008KT 10SM CLR 30/20 A3001 RMK AO2 LTG DSNT S
KMAW 212155Z AUTO 34010KT 10SM CLR 30/18 A3002 RMK AO2
KMAW 212135Z AUTO 35009KT 10SM CLR 30/18 A3002 RMK AO2
KMAW 212115Z AUTO 34011KT 10SM CLR 30/18 A3002 RMK AO2
KMAW 212055Z AUTO 34010G14KT 10SM CLR 31/18 A3002 RMK AO2
KMAW 212035Z AUTO 32010KT 10SM CLR 31/19 A3001 RMK AO2
KMAW 212015Z AUTO 31012KT 10SM CLR 33/18 A3001 RMK AO2